Terminal Aerodrome Forecast
Issued by NWS North Platte, NE

Home | Current Version | Previous Version | Text Only | Print | Product List | Glossary On
Versions: 1 2 3 4 5 6 7 8 9 10 11 12 13 14 15 16 17 18 19 20 21 22 23 24 25 26 27
000
FTUS43 KLBF 250520
TAFVTN
TAF
KVTN 250520Z 2506/2606 01013KT P6SM VCTS BKN100CB
      TEMPO 2506/2507 VRB20G30KT 5SM -TSRA BKN060CB
     FM250900 01012KT P6SM BKN200
     FM251400 34006KT P6SM FEW250
     FM252000 16006KT P6SM FEW250
     FM260000 13007KT P6SM FEW250=

USA.gov is the U.S. government's official web portal to all federal, state and local government web resources and services.